Time;durP1;ratioP1;P1;durP2;ratioP2;P2;SDS_P1;SDS_P2;PMS_P1;PMS_P2;Temp;Humidity;BMP_temperature;BMP_pressure;BME280_temperature;BME280_humidity;BME280_pressure;Samples;Min_cycle;Max_cycle;Signal;HPM_P1;HPM_P2
2020/12/21 00:01:53;;;;;;;5.57;1.50;;;9.00;88.90;;;;;;4993243;28;20098;-78
2020/12/21 00:04:19;;;;;;;4.95;2.05;;;9.00;89.00;;;;;;4974772;28;20383;-76
2020/12/21 00:06:57;;;;;;;5.22;1.67;;;9.00;89.10;;;;;;4992189;28;20521;-76
2020/12/21 00:09:24;;;;;;;4.50;1.83;;;9.00;89.20;;;;;;4974377;28;20034;-77
2020/12/21 00:11:50;;;;;;;9.57;2.35;;;8.90;89.10;;;;;;4992022;28;20153;-77
2020/12/21 00:14:17;;;;;;;6.43;2.03;;;8.90;89.20;;;;;;4992096;28;20045;-76
2020/12/21 00:16:44;;;;;;;4.88;1.85;;;8.90;89.10;;;;;;4975134;28;20022;-78
2020/12/21 00:19:11;;;;;;;2.67;1.45;;;8.80;89.10;;;;;;4992596;28;20023;-78
2020/12/21 00:21:39;;;;;;;5.18;2.13;;;8.80;89.20;;;;;;4975663;28;20045;-77
2020/12/21 00:24:05;;;;;;;4.93;1.90;;;8.80;89.20;;;;;;4974429;28;20026;-77
2020/12/21 00:26:31;;;;;;;6.40;1.92;;;8.80;89.30;;;;;;4992595;28;20037;-76
2020/12/21 00:28:57;;;;;;;2.65;1.70;;;8.80;89.30;;;;;;4974505;28;20034;-79
2020/12/21 00:31:29;;;;;;;6.97;2.28;;;8.80;89.30;;;;;;4974937;28;20118;-76
2020/12/21 00:33:57;;;;;;;3.17;1.80;;;8.80;89.30;;;;;;4958978;28;20034;-76
2020/12/21 00:36:23;;;;;;;2.80;1.63;;;8.80;89.40;;;;;;4994578;28;20018;-77
2020/12/21 00:38:49;;;;;;;6.43;2.13;;;8.70;89.30;;;;;;4996302;28;20034;-77
2020/12/21 00:41:17;;;;;;;3.58;1.80;;;8.70;89.20;;;;;;4978287;28;20360;-77
2020/12/21 00:43:46;;;;;;;5.40;1.75;;;8.70;89.30;;;;;;4996545;28;20022;-77
2020/12/21 00:46:19;;;;;;;7.28;1.80;;;8.70;89.30;;;;;;4995267;28;20050;-79
2020/12/21 00:48:45;;;;;;;5.50;1.70;;;8.70;89.30;;;;;;4995719;28;20026;-77
2020/12/21 00:51:13;;;;;;;4.90;1.50;;;8.70;89.30;;;;;;4977565;28;20038;-76
2020/12/21 00:53:38;;;;;;;3.25;1.73;;;8.70;89.30;;;;;;4978293;28;20462;-78
2020/12/21 00:56:05;;;;;;;3.28;1.40;;;8.70;89.40;;;;;;4995846;28;20025;-79
2020/12/21 00:58:31;;;;;;;5.30;2.08;;;8.70;89.40;;;;;;4995974;28;20026;-78
2020/12/21 01:00:58;;;;;;;2.85;1.40;;;8.70;89.50;;;;;;4978623;28;20085;-77
2020/12/21 01:03:24;;;;;;;2.25;1.42;;;8.70;89.50;;;;;;4978005;28;20037;-77
2020/12/21 01:05:49;;;;;;;3.40;1.88;;;8.70;89.50;;;;;;4996980;28;20030;-77
2020/12/21 01:08:15;;;;;;;9.15;1.63;;;8.60;89.40;;;;;;4977894;28;20088;-78
2020/12/21 01:10:41;;;;;;;4.18;1.08;;;8.70;89.50;;;;;;4978275;28;20073;-76
2020/12/21 01:13:07;;;;;;;2.63;1.40;;;8.70;89.50;;;;;;4994629;28;20042;-77
2020/12/21 01:15:33;;;;;;;3.90;1.50;;;8.70;89.40;;;;;;4977869;28;20121;-77
2020/12/21 01:17:59;;;;;;;2.35;1.30;;;8.60;89.30;;;;;;4995754;28;20105;-76
2020/12/21 01:20:24;;;;;;;4.25;1.67;;;8.60;89.40;;;;;;4981283;28;20042;-76
2020/12/21 01:22:50;;;;;;;2.05;1.42;;;8.60;89.40;;;;;;5010836;28;20030;-77
2020/12/21 01:25:16;;;;;;;2.63;1.35;;;8.60;89.40;;;;;;4983948;28;20026;-77
2020/12/21 01:27:41;;;;;;;2.97;1.55;;;8.60;89.40;;;;;;4996553;28;20003;-76
2020/12/21 01:30:07;;;;;;;6.30;1.70;;;8.60;90.00;;;;;;4988189;28;20027;-77
2020/12/21 01:32:33;;;;;;;1.38;1.08;;;8.60;89.30;;;;;;4977312;28;20112;-77
2020/12/21 01:34:58;;;;;;;4.60;1.75;;;8.50;89.40;;;;;;4977575;28;20022;-76
2020/12/21 01:37:24;;;;;;;3.40;1.60;;;8.50;89.40;;;;;;4976726;28;20037;-77
2020/12/21 01:39:50;;;;;;;2.83;1.65;;;8.50;89.40;;;;;;4976841;28;20092;-76
2020/12/21 01:42:16;;;;;;;1.65;1.05;;;8.50;89.50;;;;;;4976245;28;20027;-76
2020/12/21 01:44:44;;;;;;;4.97;1.42;;;8.50;89.50;;;;;;4994565;28;20034;-76
2020/12/21 01:47:11;;;;;;;3.88;1.63;;;8.50;89.50;;;;;;4992876;28;20030;-76
2020/12/21 01:49:37;;;;;;;3.67;1.55;;;8.50;89.50;;;;;;4994455;28;20022;-77
2020/12/21 01:52:04;;;;;;;4.80;1.48;;;8.50;89.50;;;;;;4976335;28;20385;-80
2020/12/21 01:54:30;;;;;;;2.30;1.20;;;8.50;89.60;;;;;;4994445;28;20490;-77
2020/12/21 01:56:55;;;;;;;2.70;1.35;;;8.50;89.60;;;;;;4994258;28;20105;-77
2020/12/21 01:59:22;;;;;;;6.30;1.55;;;8.40;89.60;;;;;;4993508;28;20086;-77
2020/12/21 02:01:50;;;;;;;2.85;1.15;;;8.40;89.70;;;;;;4993930;28;20026;-77
2020/12/21 02:04:16;;;;;;;4.75;1.58;;;8.40;89.60;;;;;;4993633;28;20022;-76
2020/12/21 02:06:41;;;;;;;2.28;1.40;;;8.40;89.70;;;;;;4994027;28;20388;-77
2020/12/21 02:09:07;;;;;;;2.40;1.10;;;8.40;89.70;;;;;;4993789;28;20085;-77
2020/12/21 02:11:33;;;;;;;5.15;1.90;;;8.40;89.70;;;;;;4994074;28;20109;-77
2020/12/21 02:13:58;;;;;;;1.70;1.25;;;8.40;89.70;;;;;;4993950;28;20037;-77
2020/12/21 02:16:24;;;;;;;4.18;1.58;;;8.40;89.80;;;;;;4993341;28;20149;-77
2020/12/21 02:18:50;;;;;;;1.75;1.15;;;8.30;89.70;;;;;;4993944;28;20368;-76
2020/12/21 02:21:15;;;;;;;1.80;1.00;;;8.30;89.70;;;;;;4975785;28;20033;-76
2020/12/21 02:23:41;;;;;;;3.72;1.80;;;8.30;89.70;;;;;;4976370;28;20485;-76
2020/12/21 02:26:06;;;;;;;2.90;1.52;;;8.30;89.70;;;;;;4975554;28;20037;-77
2020/12/21 02:28:32;;;;;;;4.68;1.65;;;8.30;89.70;;;;;;4993607;28;20027;-76
2020/12/21 02:30:58;;;;;;;3.17;1.05;;;8.30;89.70;;;;;;4976028;28;20459;-77
2020/12/21 02:33:23;;;;;;;3.58;1.40;;;8.30;89.80;;;;;;4975500;28;20363;-76
2020/12/21 02:35:49;;;;;;;3.47;1.00;;;8.30;90.10;;;;;;4993318;28;20037;-77
2020/12/21 02:38:15;;;;;;;5.60;1.80;;;8.30;89.70;;;;;;4992900;28;20077;-77
2020/12/21 02:40:41;;;;;;;2.65;1.10;;;8.30;89.70;;;;;;4993464;28;20030;-77
2020/12/21 02:43:07;;;;;;;3.50;1.35;;;8.30;89.60;;;;;;4993012;28;20026;-80
2020/12/21 02:45:32;;;;;;;2.40;1.73;;;8.30;89.70;;;;;;4975853;28;20466;-76
2020/12/21 02:47:58;;;;;;;2.53;1.10;;;8.30;89.70;;;;;;4993458;28;20025;-76
2020/12/21 02:50:24;;;;;;;5.28;1.23;;;8.30;89.70;;;;;;4992597;28;20105;-76
2020/12/21 02:52:50;;;;;;;1.48;0.80;;;8.30;89.70;;;;;;4975842;28;20031;-76
2020/12/21 02:55:15;;;;;;;4.15;1.65;;;8.30;89.70;;;;;;4992536;28;20444;-77
2020/12/21 02:57:41;;;;;;;1.65;0.88;;;8.30;89.70;;;;;;4993099;28;20042;-77
2020/12/21 03:00:11;;;;;;;3.47;1.38;;;8.30;89.70;;;;;;4992487;28;20376;-76
2020/12/21 03:02:36;;;;;;;4.60;1.58;;;8.30;89.80;;;;;;4975605;28;20581;-76
2020/12/21 03:05:02;;;;;;;3.13;1.48;;;8.30;89.80;;;;;;4993125;28;20153;-76
2020/12/21 03:07:28;;;;;;;3.80;1.50;;;8.30;89.90;;;;;;4974816;28;20625;-77
2020/12/21 03:09:54;;;;;;;2.17;1.10;;;8.30;89.90;;;;;;4975558;28;20038;-76
2020/12/21 03:12:19;;;;;;;5.28;1.10;;;8.20;89.90;;;;;;4992485;28;20033;-76
2020/12/21 03:14:45;;;;;;;2.08;1.10;;;8.20;89.90;;;;;;4992620;28;20131;-77
2020/12/21 03:17:10;;;;;;;5.97;1.60;;;8.20;90.00;;;;;;4974240;28;20026;-77
2020/12/21 03:19:36;;;;;;;2.28;1.25;;;8.30;90.00;;;;;;4991987;28;20217;-76
2020/12/21 03:22:02;;;;;;;2.92;1.35;;;8.30;90.10;;;;;;4974887;28;20161;-76
2020/12/21 03:24:27;;;;;;;3.50;1.60;;;8.30;90.00;;;;;;4975130;28;20140;-75
2020/12/21 03:26:53;;;;;;;4.75;1.52;;;8.30;90.00;;;;;;4992852;28;20101;-76
2020/12/21 03:29:19;;;;;;;1.92;1.02;;;8.30;90.00;;;;;;4974850;28;20062;-76
2020/12/21 03:31:44;;;;;;;2.47;1.10;;;8.20;89.90;;;;;;4992190;28;20026;-77
2020/12/21 03:34:13;;;;;;;4.32;1.38;;;8.20;89.90;;;;;;4979346;28;20022;-79
2020/12/21 03:36:40;;;;;;;1.35;1.08;;;8.30;89.90;;;;;;4973026;28;20051;-75
2020/12/21 03:39:06;;;;;;;3.13;1.08;;;8.20;89.90;;;;;;4963394;28;20019;-77
2020/12/21 03:41:32;;;;;;;2.08;0.93;;;8.20;90.00;;;;;;4997746;28;20057;-77
2020/12/21 03:43:58;;;;;;;1.67;0.82;;;8.20;90.00;;;;;;5005106;28;20474;-76
2020/12/21 03:46:23;;;;;;;4.57;1.40;;;8.20;90.00;;;;;;4992444;28;20038;-75
2020/12/21 03:48:49;;;;;;;3.35;1.20;;;8.20;90.00;;;;;;4992353;28;20027;-76
2020/12/21 03:51:14;;;;;;;2.38;1.20;;;8.20;90.00;;;;;;4974154;28;20030;-75
2020/12/21 03:53:40;;;;;;;2.22;0.93;;;8.20;90.00;;;;;;4992599;28;20459;-75
2020/12/21 03:56:06;;;;;;;4.45;1.25;;;8.20;90.00;;;;;;4992492;28;20050;-76
2020/12/21 03:58:31;;;;;;;2.25;1.00;;;8.30;90.00;;;;;;4991791;28;20029;-76
2020/12/21 04:00:58;;;;;;;3.13;1.23;;;8.20;90.00;;;;;;4992513;28;20410;-76
2020/12/21 04:03:28;;;;;;;2.05;1.42;;;8.20;90.00;;;;;;4991579;28;20069;-75
2020/12/21 04:05:54;;;;;;;3.63;1.10;;;8.20;90.00;;;;;;4974944;28;20022;-75
2020/12/21 04:08:20;;;;;;;4.90;1.30;;;8.20;90.00;;;;;;4991822;28;20390;-76
2020/12/21 04:10:46;;;;;;;2.22;1.00;;;8.30;90.00;;;;;;4993166;28;20037;-75
2020/12/21 04:13:13;;;;;;;1.08;0.70;;;8.30;90.00;;;;;;4978007;28;20425;-77
2020/12/21 04:15:39;;;;;;;4.90;1.38;;;8.30;89.90;;;;;;4995869;28;20471;-76
2020/12/21 04:18:05;;;;;;;6.63;1.20;;;8.30;89.90;;;;;;4978659;28;20022;-76
2020/12/21 04:20:31;;;;;;;2.95;1.30;;;8.30;89.90;;;;;;4995108;28;20101;-76
2020/12/21 04:22:57;;;;;;;4.90;1.40;;;8.30;90.00;;;;;;4995814;28;20042;-77
2020/12/21 04:25:22;;;;;;;3.85;1.27;;;8.30;90.00;;;;;;4977886;28;20375;-76
2020/12/21 04:27:48;;;;;;;2.67;1.30;;;8.30;90.00;;;;;;4978267;28;20070;-76
2020/12/21 04:30:14;;;;;;;2.60;1.40;;;8.30;90.00;;;;;;4995644;28;20072;-78
2020/12/21 04:32:40;;;;;;;4.20;1.30;;;8.20;90.00;;;;;;4978205;28;20133;-76
2020/12/21 04:35:05;;;;;;;3.80;1.40;;;8.20;90.10;;;;;;4995827;28;20031;-76
2020/12/21 04:37:33;;;;;;;2.15;1.02;;;8.20;90.10;;;;;;4977754;28;20030;-76
2020/12/21 04:39:59;;;;;;;1.83;0.98;;;8.20;90.00;;;;;;4978337;28;20042;-76
2020/12/21 04:42:25;;;;;;;5.05;1.58;;;8.20;90.00;;;;;;4978009;28;20033;-76
2020/12/21 04:44:52;;;;;;;3.10;1.00;;;8.20;90.00;;;;;;4995515;28;20413;-76
2020/12/21 04:47:19;;;;;;;2.33;1.35;;;8.20;90.00;;;;;;4990253;28;20026;-76
2020/12/21 04:49:45;;;;;;;6.22;1.23;;;8.20;90.00;;;;;;4976436;28;20019;-76
2020/12/21 04:52:12;;;;;;;2.28;0.98;;;8.20;90.00;;;;;;4974542;28;20026;-75
2020/12/21 04:54:39;;;;;;;2.22;1.13;;;8.20;90.10;;;;;;4974181;28;20034;-76
2020/12/21 04:57:05;;;;;;;4.10;1.25;;;8.10;90.00;;;;;;4976247;28;20081;-76
2020/12/21 04:59:31;;;;;;;3.00;1.20;;;8.20;90.10;;;;;;4973606;28;20134;-75
2020/12/21 05:01:56;;;;;;;1.98;0.98;;;8.20;90.10;;;;;;4976061;28;20539;-76
2020/12/21 05:04:23;;;;;;;1.52;1.33;;;8.10;90.00;;;;;;4975247;28;20034;-76
2020/12/21 05:06:50;;;;;;;4.03;1.23;;;8.10;90.00;;;;;;4974435;28;20030;-75
2020/12/21 05:09:16;;;;;;;2.00;1.40;;;8.10;90.10;;;;;;4975267;28;20501;-78
2020/12/21 05:11:54;;;;;;;6.30;1.80;;;8.10;90.10;;;;;;4974619;28;20035;-75
2020/12/21 05:14:28;;;;;;;4.28;1.52;;;8.10;90.10;;;;;;4974909;28;20483;-75
2020/12/21 05:16:54;;;;;;;3.50;1.20;;;8.10;90.10;;;;;;4974289;28;20031;-78
2020/12/21 05:19:23;;;;;;;2.08;1.60;;;8.10;90.10;;;;;;4973533;28;20412;-76
2020/12/21 05:21:55;;;;;;;3.50;0.95;;;8.10;90.10;;;;;;4975311;28;20079;-75
2020/12/21 05:24:22;;;;;;;2.58;1.00;;;8.10;90.10;;;;;;4973555;28;20077;-76
2020/12/21 05:26:47;;;;;;;2.63;1.27;;;8.10;90.10;;;;;;4974203;28;20058;-76
2020/12/21 05:29:26;;;;;;;4.25;1.10;;;8.10;90.10;;;;;;4976640;28;20061;-75
2020/12/21 05:31:52;;;;;;;3.58;1.27;;;8.20;90.10;;;;;;4992776;28;20037;-76
2020/12/21 05:34:27;;;;;;;2.50;1.30;;;8.20;90.10;;;;;;4994041;28;20030;-79
2020/12/21 05:36:53;;;;;;;2.17;0.85;;;8.20;90.10;;;;;;4994646;28;20061;-76
2020/12/21 05:39:19;;;;;;;2.70;1.08;;;8.20;90.10;;;;;;4992445;28;20049;-76
2020/12/21 05:41:45;;;;;;;1.10;0.70;;;8.10;90.10;;;;;;4994350;28;20447;-75
2020/12/21 05:44:11;;;;;;;3.50;1.17;;;8.10;90.10;;;;;;4993720;28;20050;-75
2020/12/21 05:46:37;;;;;;;3.53;1.08;;;8.10;90.10;;;;;;4992689;28;20076;-76
2020/12/21 05:49:03;;;;;;;0.88;0.73;;;8.10;90.10;;;;;;4998962;28;20052;-75
2020/12/21 05:51:36;;;;;;;3.33;1.42;;;8.10;90.10;;;;;;5004155;28;20029;-75
2020/12/21 05:54:04;;;;;;;2.67;1.10;;;8.10;90.10;;;;;;5000037;28;20030;-75
2020/12/21 05:56:33;;;;;;;4.78;1.13;;;8.10;90.20;;;;;;5008279;28;20006;-76
2020/12/21 05:58:59;;;;;;;2.75;0.80;;;8.10;90.20;;;;;;4976016;28;20022;-72
2020/12/21 06:01:25;;;;;;;3.03;1.33;;;8.10;90.30;;;;;;4990990;28;20063;-72
2020/12/21 06:04:04;;;;;;;3.22;1.05;;;8.10;90.30;;;;;;4991907;28;20034;-72
2020/12/21 06:06:31;;;;;;;2.90;1.38;;;8.10;90.50;;;;;;4974009;28;20065;-73
2020/12/21 06:09:03;;;;;;;3.13;1.13;;;8.10;90.30;;;;;;4991608;28;20031;-71
2020/12/21 06:11:31;;;;;;;2.15;1.13;;;8.00;90.20;;;;;;4990785;28;20022;-73
2020/12/21 06:14:06;;;;;;;3.80;1.05;;;8.10;90.30;;;;;;4991485;28;20427;-73
2020/12/21 06:16:35;;;;;;;5.50;0.93;;;8.10;90.20;;;;;;4990842;28;20026;-73
2020/12/21 06:19:06;;;;;;;1.65;1.08;;;8.10;90.20;;;;;;4974261;28;20407;-74
2020/12/21 06:22:01;;;;;;;2.53;1.00;;;8.10;90.20;;;;;;4991053;28;20463;-73
2020/12/21 06:24:27;;;;;;;2.25;0.90;;;8.10;90.10;;;;;;4977523;28;20100;-73
2020/12/21 06:26:54;;;;;;;3.85;1.65;;;8.10;90.10;;;;;;4974000;28;20098;-73
2020/12/21 06:29:24;;;;;;;2.90;1.45;;;8.10;90.10;;;;;;4989860;28;20410;-72
2020/12/21 06:31:54;;;;;;;3.35;1.20;;;8.10;90.10;;;;;;4991302;28;20454;-72
2020/12/21 06:34:29;;;;;;;3.70;1.30;;;8.10;90.10;;;;;;4989543;28;20027;-72
2020/12/21 06:37:08;;;;;;;1.83;1.38;;;8.10;90.10;;;;;;4990828;28;20271;-72
2020/12/21 06:39:34;;;;;;;3.28;1.38;;;8.10;90.10;;;;;;4972647;28;20081;-72
2020/12/21 06:42:11;;;;;;;1.30;0.90;;;8.10;90.10;;;;;;4993851;28;20026;-77
2020/12/21 06:44:39;;;;;;;2.42;1.10;;;8.00;90.10;;;;;;4991986;28;20435;-78
2020/12/21 06:47:06;;;;;;;2.90;1.17;;;8.00;90.10;;;;;;4993591;28;20049;-77
2020/12/21 06:49:32;;;;;;;1.98;1.02;;;8.00;90.10;;;;;;4991803;28;20022;-78
2020/12/21 06:51:57;;;;;;;1.98;1.08;;;7.90;90.20;;;;;;4992298;28;20525;-78
2020/12/21 06:54:23;;;;;;;2.40;1.30;;;7.90;90.20;;;;;;4993588;28;20122;-78
2020/12/21 06:56:50;;;;;;;3.60;1.05;;;7.90;90.20;;;;;;4976097;28;20498;-76
2020/12/21 06:59:18;;;;;;;1.33;0.98;;;7.80;90.20;;;;;;4993068;28;20105;-77
2020/12/21 07:01:48;;;;;;;2.67;1.50;;;7.80;90.20;;;;;;4992491;28;20669;-76
2020/12/21 07:04:22;;;;;;;3.15;1.33;;;7.80;90.30;;;;;;4993412;28;20101;-76
2020/12/21 07:06:48;;;;;;;2.33;1.02;;;7.80;90.30;;;;;;4991555;28;20074;-77
2020/12/21 07:09:21;;;;;;;3.55;1.48;;;7.80;90.30;;;;;;4991946;28;20375;-77
2020/12/21 07:11:56;;;;;;;3.58;1.45;;;7.70;90.30;;;;;;4975087;28;20033;-77
2020/12/21 07:14:23;;;;;;;5.38;1.80;;;7.80;90.30;;;;;;4991746;28;20034;-77
2020/12/21 07:16:49;;;;;;;3.20;1.58;;;7.70;90.30;;;;;;4992493;28;20123;-77
2020/12/21 07:19:15;;;;;;;4.57;1.65;;;7.80;90.30;;;;;;4991431;28;20076;-77
2020/12/21 07:21:41;;;;;;;2.03;1.38;;;7.80;90.30;;;;;;4974928;28;20121;-77
2020/12/21 07:24:08;;;;;;;2.40;1.40;;;7.80;90.20;;;;;;4991773;28;20092;-77
2020/12/21 07:26:34;;;;;;;2.08;1.40;;;7.80;90.20;;;;;;4992389;28;20379;-77
2020/12/21 07:29:00;;;;;;;2.38;1.00;;;7.90;90.20;;;;;;4992947;28;20030;-77
2020/12/21 07:31:26;;;;;;;2.55;1.27;;;7.90;90.20;;;;;;4992901;28;20030;-77
2020/12/21 07:34:00;;;;;;;3.95;1.42;;;7.90;90.20;;;;;;4991945;28;20026;-77
2020/12/21 07:36:34;;;;;;;2.28;0.98;;;7.90;90.20;;;;;;4991981;28;20023;-77
2020/12/21 07:39:14;;;;;;;2.55;1.20;;;7.90;90.20;;;;;;4991694;28;20049;-76
2020/12/21 07:41:44;;;;;;;3.13;1.05;;;7.90;90.10;;;;;;4992373;28;20026;-77
2020/12/21 07:44:25;;;;;;;2.85;1.40;;;7.90;90.20;;;;;;4992662;28;20117;-77
2020/12/21 07:47:15;;;;;;;2.50;1.40;;;7.90;90.20;;;;;;4995493;28;20026;-77
2020/12/21 07:49:41;;;;;;;3.28;1.40;;;7.90;90.20;;;;;;4996491;28;20029;-76
2020/12/21 07:52:09;;;;;;;3.60;1.25;;;7.90;90.20;;;;;;4995626;28;20078;-76
2020/12/21 07:54:43;;;;;;;2.13;1.10;;;7.90;90.20;;;;;;4995209;28;20034;-76
2020/12/21 07:57:10;;;;;;;5.55;1.88;;;7.90;90.20;;;;;;4997522;28;20496;-77
2020/12/21 07:59:35;;;;;;;3.05;1.20;;;7.90;90.30;;;;;;4995435;28;20177;-77
2020/12/21 08:02:06;;;;;;;1.80;1.48;;;7.80;90.30;;;;;;4999101;28;20066;-77
2020/12/21 08:04:32;;;;;;;1.88;1.20;;;7.90;90.30;;;;;;5002746;28;20023;-77
2020/12/21 08:07:11;;;;;;;5.05;1.80;;;7.90;90.30;;;;;;5011975;28;20022;-77
2020/12/21 08:09:38;;;;;;;4.15;1.70;;;7.90;90.20;;;;;;4998547;28;20036;-77
2020/12/21 08:12:11;;;;;;;2.20;1.50;;;7.90;90.20;;;;;;5011543;28;20026;-77
2020/12/21 08:14:37;;;;;;;2.58;1.20;;;8.00;90.20;;;;;;4995745;28;20172;-77
2020/12/21 08:17:27;;;;;;;2.42;1.83;;;8.00;90.10;;;;;;4997210;28;20030;-79
2020/12/21 08:19:55;;;;;;;3.20;1.60;;;8.10;90.10;;;;;;4978573;28;20073;-76
2020/12/21 08:22:24;;;;;;;3.10;1.00;;;8.10;90.10;;;;;;4996425;28;20057;-76
2020/12/21 08:25:09;;;;;;;3.92;1.75;;;8.20;90.00;;;;;;4978252;28;20259;-76
2020/12/21 08:27:56;;;;;;;2.83;1.38;;;8.20;90.00;;;;;;4995738;28;20029;-76
2020/12/21 08:30:23;;;;;;;6.57;2.22;;;8.20;90.00;;;;;;4978228;28;20066;-76
2020/12/21 08:32:50;;;;;;;1.45;1.35;;;8.30;90.00;;;;;;4995577;28;20030;-76
2020/12/21 08:35:27;;;;;;;6.70;1.08;;;8.30;90.00;;;;;;4994734;28;20023;-76
2020/12/21 08:37:53;;;;;;;1.55;0.95;;;8.30;90.00;;;;;;4994309;28;20025;-76
2020/12/21 08:40:22;;;;;;;2.22;0.95;;;8.30;90.00;;;;;;4995863;28;20413;-77
2020/12/21 08:42:48;;;;;;;3.33;1.17;;;8.30;89.90;;;;;;4994111;28;20033;-77
2020/12/21 08:45:19;;;;;;;1.80;1.15;;;8.30;90.20;;;;;;4994612;28;20019;-76
2020/12/21 08:47:45;;;;;;;;;;;8.40;89.90;;;;;;4996074;28;20027;-77
2020/12/21 08:50:10;;;;;;;2.22;1.00;;;8.30;89.70;;;;;;4995936;28;19996;-77
2020/12/21 08:52:36;;;;;;;1.30;0.90;;;8.40;89.80;;;;;;4977721;28;20505;-77
2020/12/21 08:55:03;;;;;;;0.80;0.80;;;8.40;89.70;;;;;;4994321;28;20117;-77
2020/12/21 08:57:30;;;;;;;2.45;1.13;;;8.50;89.70;;;;;;4993945;28;20382;-77
2020/12/21 08:59:55;;;;;;;2.38;1.00;;;8.50;89.60;;;;;;4994962;28;20057;-77
2020/12/21 09:02:21;;;;;;;2.63;0.93;;;8.60;89.60;;;;;;4995413;28;20053;-77
2020/12/21 09:04:47;;;;;;;2.45;1.00;;;8.60;89.50;;;;;;4977570;28;20486;-77
2020/12/21 09:07:12;;;;;;;1.52;0.88;;;8.70;89.50;;;;;;4995353;28;20073;-77
2020/12/21 09:09:38;;;;;;;1.63;0.70;;;8.70;89.30;;;;;;4993780;28;20105;-78
2020/12/21 09:12:04;;;;;;;1.83;1.23;;;8.70;89.20;;;;;;4995221;28;20050;-77
2020/12/21 09:14:30;;;;;;;1.45;0.80;;;8.70;89.10;;;;;;4993866;28;20031;-77
2020/12/21 09:16:55;;;;;;;1.98;0.90;;;8.80;89.10;;;;;;4995177;28;20430;-77
2020/12/21 09:19:21;;;;;;;2.50;1.23;;;8.80;88.90;;;;;;4977861;28;20022;-77
2020/12/21 09:21:46;;;;;;;1.15;0.75;;;8.90;88.90;;;;;;4994487;28;20031;-77
2020/12/21 09:24:12;;;;;;;0.85;0.55;;;8.90;88.90;;;;;;4977819;28;20049;-77
2020/12/21 09:26:38;;;;;;;3.30;0.90;;;8.90;88.70;;;;;;4994663;28;20019;-77
2020/12/21 09:29:05;;;;;;;7.57;1.13;;;9.00;88.70;;;;;;4994902;28;20030;-77
2020/12/21 09:31:31;;;;;;;4.43;1.30;;;9.00;89.30;;;;;;4993881;28;20030;-78
2020/12/21 09:33:57;;;;;;;1.90;0.90;;;9.00;88.50;;;;;;4994919;28;20533;-77
2020/12/21 09:36:27;;;;;;;1.48;0.90;;;9.00;88.40;;;;;;4993558;28;20121;-77
2020/12/21 09:38:53;;;;;;;3.05;0.82;;;9.10;88.40;;;;;;4993286;28;20025;-77
2020/12/21 09:41:20;;;;;;;1.95;1.00;;;9.10;88.40;;;;;;4994952;28;20457;-77
2020/12/21 09:43:50;;;;;;;2.35;0.95;;;9.10;88.30;;;;;;4994781;28;20023;-77
2020/12/21 09:46:17;;;;;;;2.67;1.30;;;9.20;88.40;;;;;;4994960;28;20073;-77
2020/12/21 09:48:43;;;;;;;2.15;0.90;;;9.20;88.30;;;;;;4976977;28;20486;-77
2020/12/21 09:51:11;;;;;;;1.92;0.93;;;9.20;88.30;;;;;;4993516;28;20072;-77
2020/12/21 09:53:38;;;;;;;1.83;0.68;;;9.20;88.30;;;;;;4993713;28;20448;-84
2020/12/21 09:56:04;;;;;;;1.88;0.80;;;9.30;88.30;;;;;;4995035;28;20109;-78
2020/12/21 09:58:30;;;;;;;4.47;1.27;;;9.30;88.30;;;;;;4977422;28;20057;-78
2020/12/21 10:00:55;;;;;;;2.22;0.88;;;9.30;88.30;;;;;;4994277;28;20125;-78
2020/12/21 10:03:21;;;;;;;1.88;1.00;;;9.30;88.20;;;;;;4977052;28;20073;-77
2020/12/21 10:05:50;;;;;;;2.03;0.90;;;9.30;88.20;;;;;;4993363;28;20073;-77
2020/12/21 10:08:16;;;;;;;1.00;0.88;;;9.40;88.30;;;;;;4994172;28;20022;-78
2020/12/21 10:10:41;;;;;;;3.13;1.23;;;9.40;88.90;;;;;;4993743;28;20045;-78
2020/12/21 10:13:07;;;;;;;1.70;0.85;;;9.40;88.20;;;;;;4998669;28;20042;-78
2020/12/21 10:15:32;;;;;;;2.60;1.20;;;9.40;88.20;;;;;;4996112;28;20120;-78
2020/12/21 10:17:58;;;;;;;1.52;1.23;;;9.40;88.20;;;;;;4996030;28;20212;-78
2020/12/21 10:20:24;;;;;;;2.08;1.10;;;9.40;88.20;;;;;;5005233;28;20034;-77
2020/12/21 10:22:49;;;;;;;1.35;1.02;;;9.40;88.20;;;;;;4998868;28;20044;-77
2020/12/21 10:25:15;;;;;;;2.67;1.00;;;9.50;88.20;;;;;;5004646;28;20033;-77
2020/12/21 10:27:40;;;;;;;3.50;1.10;;;9.50;88.30;;;;;;4981022;28;20444;-78
2020/12/21 10:30:06;;;;;;;2.13;1.15;;;9.50;88.30;;;;;;4994337;28;20029;-77
2020/12/21 10:32:32;;;;;;;1.45;1.00;;;9.50;88.20;;;;;;4976523;28;20467;-77
2020/12/21 10:34:57;;;;;;;1.38;0.95;;;9.50;88.20;;;;;;4993284;28;20061;-77
2020/12/21 10:37:23;;;;;;;2.97;1.50;;;9.60;88.20;;;;;;4976479;28;20117;-77
2020/12/21 10:39:49;;;;;;;2.17;1.00;;;9.50;88.10;;;;;;4975596;28;20477;-77
2020/12/21 10:42:14;;;;;;;2.30;1.40;;;9.50;88.10;;;;;;4993828;28;20037;-77
2020/12/21 10:44:40;;;;;;;1.77;1.02;;;9.60;88.20;;;;;;4976240;28;20030;-77
2020/12/21 10:47:06;;;;;;;2.58;1.15;;;9.60;88.30;;;;;;4993646;28;20022;-77
2020/12/21 10:49:32;;;;;;;2.08;1.20;;;9.50;88.30;;;;;;4993650;28;20057;-77
2020/12/21 10:52:01;;;;;;;2.65;1.05;;;9.60;88.30;;;;;;4993164;28;20081;-77
2020/12/21 10:54:26;;;;;;;2.05;1.15;;;9.60;88.40;;;;;;4993670;28;20050;-77
2020/12/21 10:56:52;;;;;;;3.65;1.10;;;9.60;88.40;;;;;;4993227;28;20071;-78
2020/12/21 10:59:18;;;;;;;1.20;1.10;;;9.60;88.40;;;;;;4992374;28;20037;-77
2020/12/21 11:01:47;;;;;;;1.58;1.15;;;9.60;88.50;;;;;;4992734;28;20525;-79
2020/12/21 11:04:13;;;;;;;4.07;1.00;;;9.60;88.60;;;;;;4992407;28;20117;-78
2020/12/21 11:06:39;;;;;;;4.15;0.90;;;9.60;88.60;;;;;;4993495;28;20026;-78
2020/12/21 11:09:05;;;;;;;2.22;1.20;;;9.60;88.60;;;;;;4993219;28;20022;-78
2020/12/21 11:11:31;;;;;;;4.07;1.23;;;9.60;88.70;;;;;;4992258;28;20061;-79
2020/12/21 11:13:59;;;;;;;2.10;0.93;;;9.60;88.70;;;;;;4991545;28;20060;-79
2020/12/21 11:16:25;;;;;;;2.78;1.08;;;9.60;88.80;;;;;;4992091;28;20022;-78
2020/12/21 11:18:51;;;;;;;1.85;1.10;;;9.60;88.90;;;;;;4975424;28;20034;-79
2020/12/21 11:21:16;;;;;;;1.95;0.90;;;9.50;88.90;;;;;;4996179;28;20049;-79
2020/12/21 11:23:43;;;;;;;3.35;1.23;;;9.50;89.60;;;;;;4999678;28;20073;-78
2020/12/21 11:26:09;;;;;;;2.60;1.00;;;9.50;89.10;;;;;;4999872;28;20033;-79
2020/12/21 11:28:35;;;;;;;2.15;1.00;;;9.50;89.20;;;;;;4998566;28;20161;-79
2020/12/21 11:31:01;;;;;;;5.22;1.38;;;9.40;89.30;;;;;;4996396;28;20023;-78
2020/12/21 11:33:27;;;;;;;5.38;1.73;;;9.40;89.50;;;;;;4995292;28;20117;-78
2020/12/21 11:35:52;;;;;;;1.85;1.23;;;9.40;89.80;;;;;;4993080;28;20074;-77
2020/12/21 11:38:18;;;;;;;3.70;1.35;;;9.40;89.90;;;;;;4992955;28;20033;-77
2020/12/21 11:40:44;;;;;;;4.03;1.10;;;9.30;90.00;;;;;;4993878;28;20499;-78
2020/12/21 11:43:10;;;;;;;3.05;1.23;;;9.30;90.10;;;;;;4993445;28;20406;-77
2020/12/21 11:45:35;;;;;;;4.47;1.30;;;9.30;90.40;;;;;;4975937;28;20026;-76
2020/12/21 11:48:01;;;;;;;2.95;1.17;;;9.30;90.20;;;;;;4992677;28;20335;-76
2020/12/21 11:50:27;;;;;;;2.28;1.15;;;9.20;90.20;;;;;;4992974;28;20027;-77
2020/12/21 11:52:53;;;;;;;4.88;1.33;;;9.30;90.30;;;;;;4991104;28;20439;-77
2020/12/21 11:55:19;;;;;;;3.55;1.10;;;9.30;90.40;;;;;;4992917;28;20069;-77
2020/12/21 11:57:45;;;;;;;1.30;0.98;;;9.20;90.40;;;;;;4975250;28;20371;-77
2020/12/21 12:00:10;;;;;;;1.90;1.23;;;9.20;90.40;;;;;;4974455;28;20078;-77
2020/12/21 12:02:36;;;;;;;1.88;0.82;;;9.20;90.50;;;;;;4991002;28;20027;-77
2020/12/21 12:05:09;;;;;;;3.38;1.20;;;9.20;90.50;;;;;;4991799;28;20093;-78
2020/12/21 12:07:34;;;;;;;1.40;1.08;;;9.20;90.60;;;;;;4992229;28;20455;-76
2020/12/21 12:10:00;;;;;;;2.78;1.20;;;9.20;90.60;;;;;;4991863;28;20134;-77
2020/12/21 12:12:26;;;;;;;2.90;1.20;;;9.20;90.60;;;;;;4992140;28;20048;-77
2020/12/21 12:14:51;;;;;;;2.80;1.00;;;9.20;90.70;;;;;;4991716;28;20042;-77
2020/12/21 12:17:17;;;;;;;4.85;1.23;;;9.20;90.70;;;;;;4974528;28;20077;-77
2020/12/21 12:19:43;;;;;;;2.45;1.10;;;9.20;90.70;;;;;;4992444;28;20018;-77
2020/12/21 12:22:08;;;;;;;4.75;1.35;;;9.20;90.80;;;;;;4991560;28;20034;-77
2020/12/21 12:24:35;;;;;;;3.83;1.30;;;9.20;91.10;;;;;;4992156;28;20027;-79
2020/12/21 12:27:02;;;;;;;3.90;1.02;;;9.20;90.80;;;;;;4974127;28;20026;-78
2020/12/21 12:29:29;;;;;;;5.63;1.48;;;9.30;91.10;;;;;;4974766;28;20057;-79
2020/12/21 12:31:54;;;;;;;2.90;0.95;;;9.20;90.90;;;;;;4993085;28;20502;-78
2020/12/21 12:34:20;;;;;;;2.85;1.13;;;9.30;90.90;;;;;;5004689;28;20034;-78
2020/12/21 12:36:48;;;;;;;3.55;1.02;;;9.20;90.90;;;;;;4982062;28;20026;-79
2020/12/21 12:39:13;;;;;;;5.93;1.40;;;9.30;91.00;;;;;;5003490;28;20053;-78
2020/12/21 12:41:40;;;;;;;2.28;1.10;;;9.20;91.00;;;;;;4987970;28;20030;-78
2020/12/21 12:44:06;;;;;;;3.72;1.20;;;9.20;91.00;;;;;;4994320;28;20101;-79
2020/12/21 12:46:32;;;;;;;3.33;1.48;;;9.20;91.10;;;;;;4995024;28;20057;-78
2020/12/21 12:48:58;;;;;;;4.53;1.20;;;9.20;91.20;;;;;;4992938;28;20105;-79
2020/12/21 12:51:24;;;;;;;1.35;0.80;;;9.20;91.20;;;;;;4994459;28;20030;-78
2020/12/21 12:53:50;;;;;;;4.03;1.77;;;9.20;91.30;;;;;;4993178;28;20498;-78
2020/12/21 12:56:16;;;;;;;1.90;0.98;;;9.20;91.30;;;;;;4994189;28;20025;-78
2020/12/21 12:58:41;;;;;;;3.28;1.05;;;9.20;91.40;;;;;;4994514;28;20022;-78